Time;durP1;ratioP1;P1;durP2;ratioP2;P2;SDS_P1;SDS_P2;PMS_P1;PMS_P2;Temp;Humidity;BMP_temperature;BMP_pressure;BME280_temperature;BME280_humidity;BME280_pressure;Samples;Min_cycle;Max_cycle;Signal;HPM_P1;HPM_P2
2023/05/10 00:00:01;;;;;;;2.65;1.67;;;;;;;;;;1016075;29;20027;-72
2023/05/10 00:00:31;;;;;;;2.72;2.15;;;;;;;;;;1014710;29;20485;-72
2023/05/10 00:01:02;;;;;;;3.83;2.63;;;;;;;;;;1015586;29;20503;-72
2023/05/10 00:01:32;;;;;;;20.77;2.08;;;;;;;;;;1015732;29;20043;-72
2023/05/10 00:02:03;;;;;;;9.35;2.47;;;;;;;;;;1014404;29;20027;-72
2023/05/10 00:02:33;;;;;;;11.30;1.77;;;;;;;;;;1015971;29;20028;-72
2023/05/10 00:03:04;;;;;;;2.33;1.23;;;;;;;;;;1015984;29;20034;-72
2023/05/10 00:03:35;;;;;;;10.18;2.40;;;;;;;;;;1012835;29;20505;-72
2023/05/10 00:04:05;;;;;;;2.88;1.27;;;;;;;;;;1013556;29;20036;-72
2023/05/10 00:04:36;;;;;;;7.13;3.75;;;;;;;;;;1012637;29;20031;-72
2023/05/10 00:05:07;;;;;;;4.80;1.13;;;;;;;;;;1013927;29;20020;-72
2023/05/10 00:05:37;;;;;;;9.65;2.30;;;;;;;;;;1016027;29;20032;-72
2023/05/10 00:06:08;;;;;;;1.50;1.35;;;;;;;;;;1016059;29;20039;-72
2023/05/10 00:06:38;;;;;;;1.90;1.15;;;;;;;;;;1015013;29;20077;-72
2023/05/10 00:07:10;;;;;;;2.28;1.00;;;;;;;;;;1015623;29;20118;-72
2023/05/10 00:07:40;;;;;;;19.58;1.75;;;;;;;;;;1015546;29;20492;-72
2023/05/10 00:08:11;;;;;;;2.15;1.45;;;;;;;;;;1015372;29;20032;-72
2023/05/10 00:08:41;;;;;;;3.08;1.05;;;;;;;;;;1015392;29;20020;-72
2023/05/10 00:09:12;;;;;;;2.83;2.50;;;;;;;;;;1015687;29;20107;-73
2023/05/10 00:09:42;;;;;;;3.72;1.35;;;;;;;;;;1015324;29;20086;-73
2023/05/10 00:10:13;;;;;;;7.05;1.85;;;;;;;;;;1015871;29;20032;-72
2023/05/10 00:10:43;;;;;;;2.08;1.65;;;;;;;;;;1015953;29;20024;-72
2023/05/10 00:11:14;;;;;;;1.35;0.93;;;;;;;;;;1015794;29;20023;-72
2023/05/10 00:11:44;;;;;;;1.30;0.88;;;;;;;;;;1014533;29;20464;-72
2023/05/10 00:12:15;;;;;;;2.58;1.63;;;;;;;;;;1015305;29;20059;-72
2023/05/10 00:12:45;;;;;;;13.48;2.38;;;;;;;;;;1015696;29;20396;-72
2023/05/10 00:13:16;;;;;;;1.67;0.90;;;;;;;;;;1011763;29;20032;-72
2023/05/10 00:13:47;;;;;;;1.50;1.27;;;;;;;;;;1011578;29;20055;-72
2023/05/10 00:14:18;;;;;;;13.52;4.78;;;;;;;;;;1015645;29;20052;-72
2023/05/10 00:14:48;;;;;;;16.88;5.65;;;;;;;;;;1011888;29;20505;-72
2023/05/10 00:15:19;;;;;;;23.00;8.32;;;;;;;;;;1013433;29;20033;-72
2023/05/10 00:15:50;;;;;;;14.98;6.90;;;;;;;;;;1013747;29;20483;-72
2023/05/10 00:16:20;;;;;;;19.83;6.70;;;;;;;;;;1011939;29;20556;-72
2023/05/10 00:16:51;;;;;;;29.33;10.65;;;;;;;;;;1015911;29;20032;-72
2023/05/10 00:17:21;;;;;;;16.85;5.30;;;;;;;;;;1011729;29;20520;-72
2023/05/10 00:17:52;;;;;;;10.73;4.70;;;;;;;;;;1011789;29;20028;-72
2023/05/10 00:18:22;;;;;;;13.98;6.03;;;;;;;;;;1011775;29;20087;-72
2023/05/10 00:18:53;;;;;;;18.17;5.97;;;;;;;;;;1011828;29;20055;-72
2023/05/10 00:19:23;;;;;;;18.00;7.03;;;;;;;;;;1016131;29;20032;-72
2023/05/10 00:19:54;;;;;;;11.10;3.95;;;;;;;;;;1015775;29;20020;-72
2023/05/10 00:20:24;;;;;;;26.83;5.28;;;;;;;;;;1015977;29;20441;-72
2023/05/10 00:20:55;;;;;;;21.23;5.65;;;;;;;;;;1013404;29;20560;-72
2023/05/10 00:21:25;;;;;;;11.70;6.03;;;;;;;;;;1012535;29;20071;-72
2023/05/10 00:21:56;;;;;;;11.43;6.45;;;;;;;;;;1013836;29;20068;-72
2023/05/10 00:22:26;;;;;;;13.77;4.88;;;;;;;;;;1013509;29;20115;-72
2023/05/10 00:22:57;;;;;;;21.73;7.82;;;;;;;;;;1015961;29;20032;-72
2023/05/10 00:23:27;;;;;;;16.33;7.78;;;;;;;;;;1016062;29;20386;-72
2023/05/10 00:23:58;;;;;;;12.40;7.15;;;;;;;;;;1014799;29;20031;-72
2023/05/10 00:24:28;;;;;;;11.82;6.30;;;;;;;;;;1015667;29;20095;-72
2023/05/10 00:24:59;;;;;;;24.35;9.15;;;;;;;;;;1015803;29;20055;-72
2023/05/10 00:25:29;;;;;;;57.72;9.65;;;;;;;;;;1015764;29;20122;-72
2023/05/10 00:26:00;;;;;;;7.70;5.82;;;;;;;;;;1015143;29;20019;-72
2023/05/10 00:26:30;;;;;;;14.02;5.72;;;;;;;;;;1013140;29;20099;-72
2023/05/10 00:27:01;;;;;;;12.65;6.10;;;;;;;;;;1013813;29;20035;-72
2023/05/10 00:27:31;;;;;;;9.68;4.88;;;;;;;;;;1013535;29;20574;-72
2023/05/10 00:28:02;;;;;;;17.17;7.15;;;;;;;;;;1013473;29;20017;-72
2023/05/10 00:28:32;;;;;;;8.73;4.65;;;;;;;;;;1015899;29;20477;-72
2023/05/10 00:29:03;;;;;;;31.70;3.92;;;;;;;;;;1012863;29;20054;-72
2023/05/10 00:29:33;;;;;;;5.60;3.53;;;;;;;;;;1013970;29;20043;-72
2023/05/10 00:30:04;;;;;;;6.35;2.60;;;;;;;;;;1013705;29;20035;-72
2023/05/10 00:30:34;;;;;;;13.80;5.95;;;;;;;;;;1013393;29;20055;-72
2023/05/10 00:31:05;;;;;;;9.32;3.50;;;;;;;;;;1015901;29;20032;-72
2023/05/10 00:31:35;;;;;;;13.77;5.72;;;;;;;;;;1013722;29;20015;-72
2023/05/10 00:32:06;;;;;;;9.32;3.80;;;;;;;;;;1015644;29;20044;-72
2023/05/10 00:32:36;;;;;;;1.67;1.10;;;;;;;;;;1015291;29;20027;-72
2023/05/10 00:33:07;;;;;;;0.82;0.82;;;;;;;;;;1015666;29;20032;-72
2023/05/10 00:33:37;;;;;;;4.28;1.90;;;;;;;;;;1015698;29;20032;-72
2023/05/10 00:34:08;;;;;;;1.63;0.80;;;;;;;;;;1015909;29;20042;-72
2023/05/10 00:34:38;;;;;;;8.82;2.05;;;;;;;;;;1015839;29;20028;-72
2023/05/10 00:35:09;;;;;;;10.70;3.75;;;;;;;;;;1015908;29;20087;-72
2023/05/10 00:35:40;;;;;;;10.63;3.42;;;;;;;;;;1015229;29;20024;-72
2023/05/10 00:36:10;;;;;;;4.22;2.85;;;;;;;;;;1013388;29;20032;-72
2023/05/10 00:36:41;;;;;;;1.83;1.50;;;;;;;;;;1017204;29;20020;-72
2023/05/10 00:37:11;;;;;;;5.32;2.60;;;;;;;;;;1018534;29;20031;-72
2023/05/10 00:37:42;;;;;;;8.18;2.53;;;;;;;;;;1018149;29;20024;-72
2023/05/10 00:38:12;;;;;;;0.73;0.73;;;;;;;;;;1016970;29;20067;-72
2023/05/10 00:38:43;;;;;;;4.32;2.13;;;;;;;;;;1013450;29;20028;-72
2023/05/10 00:39:13;;;;;;;3.13;2.38;;;;;;;;;;1013646;29;20204;-73
2023/05/10 00:39:44;;;;;;;2.38;0.85;;;;;;;;;;1013350;29;20123;-74
2023/05/10 00:40:14;;;;;;;2.97;2.03;;;;;;;;;;1015666;29;20053;-72
2023/05/10 00:40:45;;;;;;;1.52;1.30;;;;;;;;;;1015319;29;20480;-74
2023/05/10 00:41:15;;;;;;;11.77;1.73;;;;;;;;;;1015309;29;20032;-74
2023/05/10 00:41:46;;;;;;;4.18;2.47;;;;;;;;;;1015547;29;20024;-72
2023/05/10 00:42:16;;;;;;;1.27;0.82;;;;;;;;;;1015570;29;20559;-72
2023/05/10 00:42:47;;;;;;;4.40;2.05;;;;;;;;;;1015315;29;20024;-72
2023/05/10 00:43:17;;;;;;;9.02;2.55;;;;;;;;;;1015792;29;20157;-72
2023/05/10 00:43:48;;;;;;;3.38;1.48;;;;;;;;;;1014640;29;20405;-73
2023/05/10 00:44:18;;;;;;;3.45;1.55;;;;;;;;;;1015100;29;20028;-73
2023/05/10 00:44:49;;;;;;;1.17;1.00;;;;;;;;;;1013645;29;20028;-73
2023/05/10 00:45:19;;;;;;;3.78;2.22;;;;;;;;;;1013862;29;20119;-73
2023/05/10 00:45:50;;;;;;;6.55;2.72;;;;;;;;;;1013811;29;20031;-73
2023/05/10 00:46:21;;;;;;;1.50;0.88;;;;;;;;;;1013467;29;20103;-73
2023/05/10 00:46:52;;;;;;;3.53;1.75;;;;;;;;;;1015221;29;20031;-73
2023/05/10 00:47:22;;;;;;;1.80;1.70;;;;;;;;;;1016001;29;20020;-73
2023/05/10 00:47:54;;;;;;;1.80;1.30;;;;;;;;;;1011562;29;20123;-73
2023/05/10 00:48:25;;;;;;;8.43;1.92;;;;;;;;;;1011031;29;20538;-73
2023/05/10 00:48:55;;;;;;;3.22;1.20;;;;;;;;;;1011596;29;20028;-73
2023/05/10 00:49:26;;;;;;;3.47;1.33;;;;;;;;;;1011601;29;20024;-73
2023/05/10 00:49:57;;;;;;;2.72;0.85;;;;;;;;;;1015803;29;20032;-73
2023/05/10 00:50:27;;;;;;;17.92;2.13;;;;;;;;;;1015673;29;20032;-73
2023/05/10 00:50:58;;;;;;;6.35;1.48;;;;;;;;;;1015874;29;20118;-73
2023/05/10 00:51:28;;;;;;;3.13;2.38;;;;;;;;;;1011609;29;20036;-73
2023/05/10 00:51:59;;;;;;;2.13;1.58;;;;;;;;;;1011455;29;20028;-73
2023/05/10 00:52:30;;;;;;;7.85;1.38;;;;;;;;;;1011200;29;20036;-73
2023/05/10 00:53:01;;;;;;;4.82;1.85;;;;;;;;;;1011289;29;20405;-73
2023/05/10 00:53:32;;;;;;;12.98;2.00;;;;;;;;;;1014574;29;20034;-73
2023/05/10 00:54:03;;;;;;;3.40;1.42;;;;;;;;;;1013823;29;20036;-73
2023/05/10 00:54:33;;;;;;;4.40;3.00;;;;;;;;;;1015367;29;20020;-73
2023/05/10 00:55:04;;;;;;;13.93;2.42;;;;;;;;;;1015528;29;20068;-73
2023/05/10 00:55:35;;;;;;;2.40;1.85;;;;;;;;;;1014115;29;20119;-73
2023/05/10 00:56:06;;;;;;;2.45;1.13;;;;;;;;;;1015497;29;20032;-73
2023/05/10 00:56:36;;;;;;;2.30;2.00;;;;;;;;;;1015620;29;20024;-73
2023/05/10 00:57:07;;;;;;;2.40;1.70;;;;;;;;;;1015861;29;20092;-73
2023/05/10 00:57:37;;;;;;;5.68;2.08;;;;;;;;;;1015940;29;20492;-73
2023/05/10 00:58:08;;;;;;;22.42;2.10;;;;;;;;;;1015492;29;20532;-73
2023/05/10 00:58:39;;;;;;;2.03;0.68;;;;;;;;;;1015280;29;20028;-73
2023/05/10 00:59:10;;;;;;;4.35;1.85;;;;;;;;;;1015611;29;20143;-73
2023/05/10 00:59:40;;;;;;;0.68;0.55;;;;;;;;;;1014425;29;20024;-73
2023/05/10 01:00:12;;;;;;;16.60;2.20;;;;;;;;;;1013659;29;21136;-73
2023/05/10 01:00:43;;;;;;;3.38;1.27;;;;;;;;;;1014267;29;20028;-73
2023/05/10 01:01:14;;;;;;;10.43;2.25;;;;;;;;;;1012540;29;20402;-73
2023/05/10 01:01:45;;;;;;;10.23;2.53;;;;;;;;;;1007553;29;20045;-73
2023/05/10 01:02:16;;;;;;;3.88;2.60;;;;;;;;;;1011372;29;20028;-73
2023/05/10 01:02:46;;;;;;;3.90;1.95;;;;;;;;;;1011510;29;20477;-73
2023/05/10 01:03:17;;;;;;;3.95;3.55;;;;;;;;;;1014134;29;20036;-73
2023/05/10 01:03:47;;;;;;;4.65;1.70;;;;;;;;;;1016461;29;20028;-73
2023/05/10 01:04:19;;;;;;;1.15;1.02;;;;;;;;;;1016126;29;20396;-73
2023/05/10 01:04:50;;;;;;;6.28;1.48;;;;;;;;;;1014769;29;20031;-73
2023/05/10 01:05:20;;;;;;;2.72;2.00;;;;;;;;;;1015178;29;20024;-73
2023/05/10 01:05:51;;;;;;;12.02;2.00;;;;;;;;;;1015340;29;20075;-73
2023/05/10 01:06:22;;;;;;;7.45;4.90;;;;;;;;;;1012889;29;20024;-73
2023/05/10 01:06:53;;;;;;;4.35;2.03;;;;;;;;;;1010008;29;20103;-74
2023/05/10 01:07:23;;;;;;;3.47;2.60;;;;;;;;;;1011560;29;20047;-73
2023/05/10 01:07:54;;;;;;;1.73;1.55;;;;;;;;;;1011481;29;20031;-72
2023/05/10 01:08:25;;;;;;;20.42;2.10;;;;;;;;;;1010904;29;20396;-72
2023/05/10 01:08:56;;;;;;;3.45;1.17;;;;;;;;;;1014569;29;20024;-73
2023/05/10 01:09:27;;;;;;;2.65;1.55;;;;;;;;;;1015714;29;20473;-72
2023/05/10 01:09:57;;;;;;;21.17;1.95;;;;;;;;;;1014945;29;20114;-72
2023/05/10 01:10:28;;;;;;;3.60;2.17;;;;;;;;;;1011193;29;20125;-73
2023/05/10 01:10:59;;;;;;;1.85;1.08;;;;;;;;;;1010912;29;20080;-73
2023/05/10 01:11:29;;;;;;;33.25;1.77;;;;;;;;;;1011370;29;20214;-73
2023/05/10 01:12:01;;;;;;;1.92;1.10;;;;;;;;;;1007529;29;20422;-73
2023/05/10 01:12:32;;;;;;;11.80;4.07;;;;;;;;;;1010073;29;20116;-73
2023/05/10 01:13:03;;;;;;;4.00;1.45;;;;;;;;;;1010729;29;20059;-74
2023/05/10 01:13:35;;;;;;;8.43;2.78;;;;;;;;;;1011816;29;20172;-72
2023/05/10 01:14:06;;;;;;;2.75;1.27;;;;;;;;;;1015076;29;20027;-74
2023/05/10 01:14:37;;;;;;;2.20;1.42;;;;;;;;;;1014263;29;20484;-74
2023/05/10 01:15:08;;;;;;;3.42;2.08;;;;;;;;;;1018014;29;20034;-72
2023/05/10 01:15:38;;;;;;;8.27;1.40;;;;;;;;;;1018295;29;20027;-72
2023/05/10 01:16:09;;;;;;;17.50;3.25;;;;;;;;;;1018403;29;20079;-72
2023/05/10 01:16:40;;;;;;;3.42;1.13;;;;;;;;;;1019020;29;20028;-72
2023/05/10 01:17:12;;;;;;;10.35;2.05;;;;;;;;;;1015261;29;20111;-74
2023/05/10 01:17:43;;;;;;;18.77;2.30;;;;;;;;;;1014821;29;20038;-74
2023/05/10 01:18:15;;;;;;;1.00;0.90;;;;;;;;;;1010390;29;20462;-73
2023/05/10 01:18:46;;;;;;;2.63;1.63;;;;;;;;;;1010981;29;20032;-72
2023/05/10 01:19:23;;;;;;;1.35;0.90;;;;;;;;;;1011380;29;20024;-73
2023/05/10 01:19:53;;;;;;;1.63;1.52;;;;;;;;;;1012356;29;20029;-73
2023/05/10 01:20:25;;;;;;;9.40;2.05;;;;;;;;;;1012488;29;20024;-73
2023/05/10 01:21:03;;;;;;;5.10;1.77;;;;;;;;;;1016606;29;20039;-73
2023/05/10 01:21:43;;;;;;;4.85;1.85;;;;;;;;;;1014370;29;20508;-73
2023/05/10 01:22:32;;;;;;;12.10;2.80;;;;;;;;;;1015737;29;20442;-73
2023/05/10 01:23:02;;;;;;;10.90;4.32;;;;;;;;;;1014548;29;20024;-73
2023/05/10 01:23:42;;;;;;;15.00;3.50;;;;;;;;;;1013935;29;20062;-73
2023/05/10 01:24:26;;;;;;;15.10;3.55;;;;;;;;;;1013717;29;20028;-73
2023/05/10 01:25:11;;;;;;;7.93;3.78;;;;;;;;;;1012765;29;20037;-74
2023/05/10 01:25:48;;;;;;;6.82;2.38;;;;;;;;;;1013957;29;20498;-73
2023/05/10 01:26:38;;;;;;;4.82;1.70;;;;;;;;;;1012022;29;20032;-73
2023/05/10 01:27:41;;;;;;;11.35;2.38;;;;;;;;;;1011574;29;20081;-73
2023/05/10 01:28:17;;;;;;;13.15;4.07;;;;;;;;;;1009959;29;20067;-73
2023/05/10 01:29:02;;;;;;;8.25;3.05;;;;;;;;;;1010392;29;20036;-73
2023/05/10 01:29:47;;;;;;;7.32;3.47;;;;;;;;;;1015327;29;20433;-73
2023/05/10 01:30:18;;;;;;;9.55;3.53;;;;;;;;;;1014870;29;20176;-73
2023/05/10 01:30:54;;;;;;;5.78;4.20;;;;;;;;;;1012622;29;20079;-73
2023/05/10 01:31:37;;;;;;;9.45;5.40;;;;;;;;;;1014496;29;20038;-73
2023/05/10 01:32:26;;;;;;;9.50;4.07;;;;;;;;;;1014553;29;20028;-74
2023/05/10 01:33:19;;;;;;;5.20;2.63;;;;;;;;;;1014789;29;20388;-73
2023/05/10 01:33:59;;;;;;;13.23;3.50;;;;;;;;;;1007570;29;20576;-73
2023/05/10 01:34:42;;;;;;;4.47;2.08;;;;;;;;;;1009182;29;20538;-73
2023/05/10 01:35:13;;;;;;;3.97;2.33;;;;;;;;;;1009236;29;20060;-73
2023/05/10 01:35:47;;;;;;;11.65;4.72;;;;;;;;;;1013189;29;20024;-73
2023/05/10 01:36:18;;;;;;;5.63;2.38;;;;;;;;;;1013690;29;20533;-73
2023/05/10 01:36:54;;;;;;;6.45;2.05;;;;;;;;;;1014217;29;20553;-73
2023/05/10 01:37:29;;;;;;;8.13;1.70;;;;;;;;;;1013479;29;20400;-73
2023/05/10 01:38:04;;;;;;;4.65;1.88;;;;;;;;;;1013887;29;20032;-73
2023/05/10 01:38:47;;;;;;;6.35;2.65;;;;;;;;;;1012764;29;20032;-73
2023/05/10 01:39:23;;;;;;;2.95;1.80;;;;;;;;;;1013660;29;20024;-73
2023/05/10 01:40:02;;;;;;;5.10;3.22;;;;;;;;;;1013144;29;20035;-73
2023/05/10 01:40:39;;;;;;;5.38;2.97;;;;;;;;;;1013087;29;20067;-73
2023/05/10 01:41:24;;;;;;;6.50;2.28;;;;;;;;;;1013732;29;20060;-73
2023/05/10 01:42:09;;;;;;;3.53;1.98;;;;;;;;;;1014799;29;20031;-73
2023/05/10 01:42:45;;;;;;;6.47;1.45;;;;;;;;;;1009783;29;20452;-73
2023/05/10 01:43:22;;;;;;;5.25;2.20;;;;;;;;;;1010082;29;20197;-73
2023/05/10 01:44:15;;;;;;;8.93;1.40;;;;;;;;;;1009499;29;20100;-73
2023/05/10 01:44:55;;;;;;;2.53;2.15;;;;;;;;;;1013583;29;20111;-73
2023/05/10 01:45:31;;;;;;;17.10;5.07;;;;;;;;;;1017020;29;20035;-73
2023/05/10 01:46:12;;;;;;;6.53;1.33;;;;;;;;;;1016578;29;20108;-73
2023/05/10 01:46:42;;;;;;;9.43;1.70;;;;;;;;;;1017660;29;20039;-75
2023/05/10 01:47:21;;;;;;;0.75;0.30;;;;;;;;;;1013397;29;20024;-72
2023/05/10 01:47:56;;;;;;;2.15;1.95;;;;;;;;;;1013737;29;20082;-74
2023/05/10 01:48:28;;;;;;;2.42;1.27;;;;;;;;;;1013395;29;20494;-74
2023/05/10 01:49:00;;;;;;;2.15;1.17;;;;;;;;;;1016034;29;20028;-74
2023/05/10 01:49:32;;;;;;;8.70;1.95;;;;;;;;;;1016648;29;20020;-75
2023/05/10 01:50:04;;;;;;;4.85;2.05;;;;;;;;;;1017889;29;20122;-74
2023/05/10 01:50:38;;;;;;;9.73;0.57;;;;;;;;;;1014171;29;20036;-74
2023/05/10 01:51:09;;;;;;;1.33;1.23;;;;;;;;;;1013456;29;20069;-74
2023/05/10 01:51:46;;;;;;;1.60;0.88;;;;;;;;;;1013035;29;20023;-74
2023/05/10 01:52:21;;;;;;;5.50;1.33;;;;;;;;;;1008687;29;20040;-74
2023/05/10 01:52:57;;;;;;;4.90;2.03;;;;;;;;;;1012063;29;20434;-74
2023/05/10 01:53:27;;;;;;;5.90;1.25;;;;;;;;;;1010121;29;20033;-74
2023/05/10 01:54:00;;;;;;;4.50;1.85;;;;;;;;;;1011865;29;20035;-74
2023/05/10 01:54:32;;;;;;;3.83;1.45;;;;;;;;;;1011743;29;20032;-74
2023/05/10 01:55:07;;;;;;;7.13;2.45;;;;;;;;;;1013707;29;20036;-73
2023/05/10 01:55:52;;;;;;;5.82;1.77;;;;;;;;;;1012268;29;20035;-74
2023/05/10 01:56:24;;;;;;;1.20;0.85;;;;;;;;;;1011376;29;20541;-74
2023/05/10 01:57:00;;;;;;;5.38;0.75;;;;;;;;;;1013639;29;20539;-76
2023/05/10 01:57:34;;;;;;;8.25;3.20;;;;;;;;;;1014396;29;20471;-73
2023/05/10 01:58:06;;;;;;;2.83;2.10;;;;;;;;;;1016949;29;20058;-74
2023/05/10 01:58:38;;;;;;;1.27;0.68;;;;;;;;;;1015090;29;20035;-73
2023/05/10 01:59:16;;;;;;;7.03;1.50;;;;;;;;;;1008718;29;20424;-74
2023/05/10 01:59:49;;;;;;;6.80;1.98;;;;;;;;;;1006516;29;20096;-75
2023/05/10 02:00:20;;;;;;;1.00;0.70;;;;;;;;;;1007753;29;20768;-75
2023/05/10 02:00:51;;;;;;;0.93;0.60;;;;;;;;;;1012849;29;20128;-73
2023/05/10 02:01:22;;;;;;;11.30;3.42;;;;;;;;;;1014986;29;20035;-74
2023/05/10 02:01:54;;;;;;;4.13;1.88;;;;;;;;;;1016294;29;20114;-74
2023/05/10 02:02:25;;;;;;;7.88;2.92;;;;;;;;;;1012436;29;20077;-74
2023/05/10 02:02:57;;;;;;;10.57;2.22;;;;;;;;;;1013871;29;20160;-74
2023/05/10 02:03:28;;;;;;;5.90;1.65;;;;;;;;;;1009426;29;20033;-74
2023/05/10 02:03:59;;;;;;;5.25;1.08;;;;;;;;;;1005654;29;20768;-74
2023/05/10 02:04:29;;;;;;;3.30;1.63;;;;;;;;;;1005522;29;20038;-74
2023/05/10 02:05:00;;;;;;;2.50;1.40;;;;;;;;;;1007065;29;20025;-75
2023/05/10 02:05:32;;;;;;;10.02;1.92;;;;;;;;;;1010241;29;20091;-74
2023/05/10 02:06:03;;;;;;;4.63;2.13;;;;;;;;;;1011947;29;20087;-74
2023/05/10 02:06:34;;;;;;;3.60;2.33;;;;;;;;;;1014778;29;20036;-74
2023/05/10 02:07:05;;;;;;;12.07;3.38;;;;;;;;;;1015412;29;20953;-74
2023/05/10 02:07:36;;;;;;;1.55;0.80;;;;;;;;;;1015456;29;20030;-75
2023/05/10 02:08:07;;;;;;;4.53;2.60;;;;;;;;;;1012892;29;20039;-75
2023/05/10 02:08:38;;;;;;;14.68;1.75;;;;;;;;;;1008918;29;20040;-75
2023/05/10 02:09:10;;;;;;;3.10;2.33;;;;;;;;;;1008197;29;20165;-74
2023/05/10 02:09:44;;;;;;;14.15;1.67;;;;;;;;;;1010421;29;20028;-74
2023/05/10 02:10:15;;;;;;;1.92;1.08;;;;;;;;;;1009126;29;20117;-75
2023/05/10 02:10:46;;;;;;;5.70;1.75;;;;;;;;;;1013318;29;20159;-74
2023/05/10 02:11:18;;;;;;;15.90;2.83;;;;;;;;;;1014539;29;20597;-74
2023/05/10 02:11:49;;;;;;;0.85;0.63;;;;;;;;;;1011858;29;20025;-74
2023/05/10 02:12:20;;;;;;;8.75;1.25;;;;;;;;;;1006376;29;20029;-74
2023/05/10 02:12:53;;;;;;;10.70;3.17;;;;;;;;;;1010489;29;20613;-74
2023/05/10 02:13:24;;;;;;;2.22;1.48;;;;;;;;;;1005706;29;20033;-75
2023/05/10 02:13:55;;;;;;;9.43;3.65;;;;;;;;;;1010432;29;20533;-75
2023/05/10 02:14:26;;;;;;;7.95;2.13;;;;;;;;;;1011115;29;20016;-75
2023/05/10 02:14:58;;;;;;;2.20;1.75;;;;;;;;;;1009763;29;20029;-75
2023/05/10 02:15:29;;;;;;;7.93;1.23;;;;;;;;;;1014724;29;20016;-74
2023/05/10 02:16:01;;;;;;;8.40;2.58;;;;;;;;;;1015146;29;20031;-74
2023/05/10 02:16:32;;;;;;;6.20;2.28;;;;;;;;;;1014586;29;20063;-74
2023/05/10 02:17:05;;;;;;;14.82;3.03;;;;;;;;;;1015121;29;20024;-75
2023/05/10 02:17:37;;;;;;;14.35;2.42;;;;;;;;;;1013811;28;20024;-74
2023/05/10 02:18:09;;;;;;;29.70;2.50;;;;;;;;;;1009998;29;20139;-75
2023/05/10 02:18:41;;;;;;;8.15;1.63;;;;;;;;;;1011456;29;20039;-76
2023/05/10 02:19:14;;;;;;;9.40;2.17;;;;;;;;;;1010272;29;20023;-75
2023/05/10 02:19:45;;;;;;;0.68;0.55;;;;;;;;;;1012118;29;20016;-73
2023/05/10 02:20:16;;;;;;;7.65;3.55;;;;;;;;;;1008212;29;20032;-74
2023/05/10 02:20:47;;;;;;;8.40;4.65;;;;;;;;;;1006432;29;20032;-74
2023/05/10 02:21:18;;;;;;;2.08;0.88;;;;;;;;;;1005720;29;20064;-74
2023/05/10 02:21:51;;;;;;;5.38;1.30;;;;;;;;;;1007017;29;20128;-75
2023/05/10 02:22:22;;;;;;;5.05;2.10;;;;;;;;;;1010292;29;20059;-75
2023/05/10 02:22:54;;;;;;;3.15;2.28;;;;;;;;;;1016321;29;20035;-74
2023/05/10 02:23:26;;;;;;;6.05;2.15;;;;;;;;;;1014760;29;20028;-74
2023/05/10 02:23:57;;;;;;;3.25;2.10;;;;;;;;;;1015400;29;20056;-74
2023/05/10 02:24:28;;;;;;;4.75;1.70;;;;;;;;;;1013730;29;20031;-75
2023/05/10 02:24:59;;;;;;;4.00;1.10;;;;;;;;;;1012886;29;20930;-76
2023/05/10 02:25:31;;;;;;;4.70;1.20;;;;;;;;;;1012519;29;20416;-75
2023/05/10 02:26:02;;;;;;;1.85;1.48;;;;;;;;;;1011645;29;20568;-75
2023/05/10 02:26:33;;;;;;;8.82;2.70;;;;;;;;;;1014345;29;20020;-75
2023/05/10 02:27:05;;;;;;;3.33;1.00;;;;;;;;;;1014084;29;20428;-75
2023/05/10 02:27:36;;;;;;;6.00;1.60;;;;;;;;;;1012157;29;20092;-76
2023/05/10 02:28:08;;;;;;;1.95;0.63;;;;;;;;;;1010944;29;20031;-76
2023/05/10 02:28:39;;;;;;;2.38;1.70;;;;;;;;;;1024194;23;20058;-76
2023/05/10 02:29:09;;;;;;;13.18;1.63;;;;;;;;;;1019378;29;20551;-76
2023/05/10 02:29:41;;;;;;;1.48;0.95;;;;;;;;;;1021758;29;20051;-76
2023/05/10 02:30:12;;;;;;;3.42;2.42;;;;;;;;;;1021215;29;20028;-76
2023/05/10 02:30:43;;;;;;;7.63;2.47;;;;;;;;;;1013874;29;20479;-75
2023/05/10 02:31:15;;;;;;;6.45;1.85;;;;;;;;;;1018999;29;20028;-75
2023/05/10 02:31:45;;;;;;;7.90;3.20;;;;;;;;;;1017837;29;20483;-75
2023/05/10 02:32:16;;;;;;;1.17;0.80;;;;;;;;;;1017756;29;20042;-76
2023/05/10 02:32:48;;;;;;;10.38;1.35;;;;;;;;;;1018259;29;20023;-76
2023/05/10 02:33:19;;;;;;;1.60;0.73;;;;;;;;;;1017697;29;20092;-76
2023/05/10 02:33:50;;;;;;;16.13;1.80;;;;;;;;;;1016772;29;20071;-75
2023/05/10 02:34:25;;;;;;;7.35;2.85;;;;;;;;;;1017910;29;20082;-74
2023/05/10 02:34:57;;;;;;;15.70;2.40;;;;;;;;;;1018630;29;20392;-74
2023/05/10 02:35:33;;;;;;;5.32;1.17;;;;;;;;;;1020115;29;20078;-75
2023/05/10 02:36:03;;;;;;;3.88;0.88;;;;;;;;;;1023553;29;20476;-74
2023/05/10 02:36:36;;;;;;;3.67;2.63;;;;;;;;;;1021372;29;20027;-74
2023/05/10 02:37:07;;;;;;;20.10;3.13;;;;;;;;;;1021523;28;20125;-76
2023/05/10 02:37:38;;;;;;;38.13;2.83;;;;;;;;;;1023107;29;20432;-74
2023/05/10 02:38:10;;;;;;;8.02;1.88;;;;;;;;;;1018872;29;20050;-77
2023/05/10 02:38:40;;;;;;;18.90;3.83;;;;;;;;;;1017996;29;20469;-73
2023/05/10 02:39:13;;;;;;;10.20;2.85;;;;;;;;;;1016759;29;20046;-74
2023/05/10 02:39:50;;;;;;;9.88;2.28;;;;;;;;;;1018284;29;20031;-75
2023/05/10 02:40:22;;;;;;;7.95;2.30;;;;;;;;;;1017394;29;20039;-73
2023/05/10 02:40:53;;;;;;;4.47;2.00;;;;;;;;;;1020957;29;20031;-76
2023/05/10 02:41:26;;;;;;;6.93;2.22;;;;;;;;;;1020161;29;20842;-75
2023/05/10 02:41:56;;;;;;;8.73;1.38;;;;;;;;;;1023045;29;20019;-76
2023/05/10 02:42:27;;;;;;;0.38;0.35;;;;;;;;;;1017481;29;20019;-75
2023/05/10 02:42:59;;;;;;;7.95;3.00;;;;;;;;;;1016923;29;20032;-76
2023/05/10 02:43:31;;;;;;;6.18;1.95;;;;;;;;;;1017102;29;20092;-74
2023/05/10 02:44:02;;;;;;;3.25;2.25;;;;;;;;;;1016727;29;20015;-76
2023/05/10 02:44:34;;;;;;;7.32;1.95;;;;;;;;;;1018196;29;20062;-76
2023/05/10 02:45:07;;;;;;;5.68;2.08;;;;;;;;;;1016845;29;20151;-76
2023/05/10 02:45:38;;;;;;;7.47;1.52;;;;;;;;;;1018123;29;20034;-73
2023/05/10 02:46:11;;;;;;;2.30;1.42;;;;;;;;;;1019732;29;20131;-75
2023/05/10 02:46:43;;;;;;;9.23;2.30;;;;;;;;;;1020809;29;20055;-75
2023/05/10 02:47:13;;;;;;;13.93;1.33;;;;;;;;;;1020222;29;20030;-74
2023/05/10 02:47:48;;;;;;;2.67;1.55;;;;;;;;;;1019360;29;20513;-73
2023/05/10 02:48:18;;;;;;;2.22;0.73;;;;;;;;;;1016546;29;20027;-73
2023/05/10 02:48:49;;;;;;;3.65;2.03;;;;;;;;;;1017818;29;20031;-74
2023/05/10 02:49:19;;;;;;;1.33;0.98;;;;;;;;;;1016203;29;20042;-73
2023/05/10 02:49:50;;;;;;;3.70;2.40;;;;;;;;;;1018102;29;20038;-75
2023/05/10 02:50:21;;;;;;;13.07;2.40;;;;;;;;;;1019802;29;20365;-75
2023/05/10 02:50:53;;;;;;;4.82;0.95;;;;;;;;;;1019775;29;20118;-75
2023/05/10 02:51:25;;;;;;;1.60;1.13;;;;;;;;;;1020533;28;20126;-75
2023/05/10 02:51:57;;;;;;;16.70;2.10;;;;;;;;;;1020388;29;20118;-75
2023/05/10 02:52:30;;;;;;;7.60;1.90;;;;;;;;;;1016820;29;20031;-76
2023/05/10 02:53:03;;;;;;;0.95;0.75;;;;;;;;;;1018318;29;20035;-76
2023/05/10 02:53:36;;;;;;;9.75;3.03;;;;;;;;;;1022255;29;20019;-75
2023/05/10 02:54:11;;;;;;;13.77;1.50;;;;;;;;;;1019828;29;20433;-76
2023/05/10 02:54:49;;;;;;;2.50;1.08;;;;;;;;;;1019237;29;20412;-75
2023/05/10 02:55:25;;;;;;;4.88;1.38;;;;;;;;;;1020760;29;20150;-76
2023/05/10 02:55:58;;;;;;;1.55;1.30;;;;;;;;;;1018741;29;20056;-75
2023/05/10 02:56:31;;;;;;;2.13;1.00;;;;;;;;;;1016357;29;20045;-74
2023/05/10 02:57:05;;;;;;;1.05;0.93;;;;;;;;;;1019719;28;20032;-76
2023/05/10 02:57:37;;;;;;;3.15;1.08;;;;;;;;;;1021102;29;20401;-74
2023/05/10 02:58:07;;;;;;;6.95;2.33;;;;;;;;;;1017199;29;20118;-74
2023/05/10 02:58:38;;;;;;;3.15;0.77;;;;;;;;;;1019507;28;20038;-76
2023/05/10 02:59:09;;;;;;;6.55;3.25;;;;;;;;;;1016944;29;20032;-76
2023/05/10 02:59:39;;;;;;;7.40;2.03;;;;;;;;;;1017095;29;20058;-75
2023/05/10 03:00:12;;;;;;;4.40;2.00;;;;;;;;;;1015171;29;20039;-75
2023/05/10 03:00:42;;;;;;;3.00;1.42;;;;;;;;;;1016233;29;20028;-75
2023/05/10 03:01:15;;;;;;;4.30;1.65;;;;;;;;;;1018059;29;20028;-76
2023/05/10 03:01:46;;;;;;;1.55;0.60;;;;;;;;;;1016901;29;20062;-76
2023/05/10 03:02:19;;;;;;;4.57;2.60;;;;;;;;;;1016753;29;20032;-76
2023/05/10 03:02:51;;;;;;;4.05;1.15;;;;;;;;;;1017895;29;20031;-76
2023/05/10 03:03:22;;;;;;;3.45;1.50;;;;;;;;;;1017720;29;20506;-76
2023/05/10 03:03:53;;;;;;;14.38;1.30;;;;;;;;;;1019052;29;20035;-75
2023/05/10 03:04:24;;;;;;;4.53;2.35;;;;;;;;;;1016658;29;21014;-75
2023/05/10 03:04:55;;;;;;;6.25;2.15;;;;;;;;;;1020495;29;20035;-76
2023/05/10 03:05:26;;;;;;;11.02;3.97;;;;;;;;;;1019529;29;20702;-75
2023/05/10 03:05:58;;;;;;;2.20;1.02;;;;;;;;;;1019757;29;20032;-74
2023/05/10 03:06:31;;;;;;;1.95;1.15;;;;;;;;;;1016512;29;20031;-76
2023/05/10 03:07:02;;;;;;;3.75;0.95;;;;;;;;;;1014542;29;20032;-76
2023/05/10 03:07:33;;;;;;;16.25;3.03;;;;;;;;;;1011148;29;20029;-75
2023/05/10 03:08:04;;;;;;;5.50;0.93;;;;;;;;;;1011746;29;20029;-75
2023/05/10 03:08:36;;;;;;;15.70;2.72;;;;;;;;;;1014477;29;20083;-75
2023/05/10 03:09:09;;;;;;;6.25;2.05;;;;;;;;;;1017460;29;20066;-75
2023/05/10 03:09:40;;;;;;;5.78;1.45;;;;;;;;;;1021634;29;20523;-75
2023/05/10 03:10:10;;;;;;;6.85;1.65;;;;;;;;;;1021256;28;20027;-76
2023/05/10 03:10:48;;;;;;;10.80;2.03;;;;;;;;;;1021536;28;20026;-77
2023/05/10 03:11:29;;;;;;;25.95;4.25;;;;;;;;;;1020042;29;20519;-75
2023/05/10 03:12:02;;;;;;;9.02;1.50;;;;;;;;;;1016994;29;20102;-75
2023/05/10 03:12:40;;;;;;;22.52;3.20;;;;;;;;;;1020522;29;20079;-75
2023/05/10 03:13:38;;;;;;;4.35;2.03;;;;;;;;;;1018933;29;20027;-76
2023/05/10 03:14:27;;;;;;;9.13;2.92;;;;;;;;;;1008643;29;20816;-77